sensor_id;sensor_type;location;lat;lon;timestamp;pressure;altitude;pressure_sealevel;temperature;humidity
10712;BME280;5407;51.234;6.804;2022-09-09T00:01:51;100364.00;;;26.35;42.68
10712;BME280;5407;51.234;6.804;2022-09-09T00:04:21;100361.69;;;26.33;42.69
10712;BME280;5407;51.234;6.804;2022-09-09T00:06:55;100368.44;;;26.32;42.84
10712;BME280;5407;51.234;6.804;2022-09-09T00:09:24;100362.16;;;26.32;42.39
10712;BME280;5407;51.234;6.804;2022-09-09T00:11:54;100365.69;;;26.32;42.60
10712;BME280;5407;51.234;6.804;2022-09-09T00:14:25;100367.69;;;26.32;42.52
10712;BME280;5407;51.234;6.804;2022-09-09T00:16:56;100366.16;;;26.31;42.59
10712;BME280;5407;51.234;6.804;2022-09-09T00:19:27;100361.84;;;26.30;42.56
10712;BME280;5407;51.234;6.804;2022-09-09T00:21:58;100363.38;;;26.31;42.71
10712;BME280;5407;51.234;6.804;2022-09-09T00:24:27;100363.38;;;26.31;42.62
10712;BME280;5407;51.234;6.804;2022-09-09T00:26:57;100355.53;;;26.29;42.75
10712;BME280;5407;51.234;6.804;2022-09-09T00:29:28;100360.31;;;26.29;42.78
10712;BME280;5407;51.234;6.804;2022-09-09T00:32:05;100358.75;;;26.28;42.76
10712;BME280;5407;51.234;6.804;2022-09-09T00:34:35;100363.50;;;26.27;42.89
10712;BME280;5407;51.234;6.804;2022-09-09T00:37:03;100364.72;;;26.26;42.77
10712;BME280;5407;51.234;6.804;2022-09-09T00:39:31;100358.88;;;26.24;43.02
10712;BME280;5407;51.234;6.804;2022-09-09T00:42:02;100358.88;;;26.24;42.96
10712;BME280;5407;51.234;6.804;2022-09-09T00:44:36;100355.06;;;26.22;43.06
10712;BME280;5407;51.234;6.804;2022-09-09T00:47:11;100353.47;;;26.21;43.15
10712;BME280;5407;51.234;6.804;2022-09-09T00:49:42;100346.41;;;26.20;43.12
10712;BME280;5407;51.234;6.804;2022-09-09T00:52:18;100343.66;;;26.20;43.33
10712;BME280;5407;51.234;6.804;2022-09-09T00:54:51;100348.88;;;26.18;43.29
10712;BME280;5407;51.234;6.804;2022-09-09T00:57:25;100355.63;;;26.17;43.34
10712;BME280;5407;51.234;6.804;2022-09-09T00:59:56;100348.22;;;26.14;43.27
10712;BME280;5407;51.234;6.804;2022-09-09T01:02:29;100358.97;;;26.12;43.55
10712;BME280;5407;51.234;6.804;2022-09-09T01:05:00;100348.50;;;26.07;43.92
10712;BME280;5407;51.234;6.804;2022-09-09T01:07:30;100354.00;;;25.98;43.99
10712;BME280;5407;51.234;6.804;2022-09-09T01:09:57;100351.50;;;25.91;44.13
10712;BME280;5407;51.234;6.804;2022-09-09T01:12:26;100357.94;;;25.88;44.82
10712;BME280;5407;51.234;6.804;2022-09-09T01:14:57;100349.91;;;25.81;44.65
10712;BME280;5407;51.234;6.804;2022-09-09T01:17:31;100338.66;;;25.75;45.00
10712;BME280;5407;51.234;6.804;2022-09-09T01:20:05;100338.00;;;25.71;44.93
10712;BME280;5407;51.234;6.804;2022-09-09T01:22:44;100346.88;;;25.66;44.81
10712;BME280;5407;51.234;6.804;2022-09-09T01:25:22;100341.69;;;25.68;44.85
10712;BME280;5407;51.234;6.804;2022-09-09T01:28:08;100349.19;;;25.68;44.78
10712;BME280;5407;51.234;6.804;2022-09-09T01:30:37;100346.41;;;25.68;44.84
10712;BME280;5407;51.234;6.804;2022-09-09T01:33:07;100338.75;;;25.72;44.77
10712;BME280;5407;51.234;6.804;2022-09-09T01:35:40;100346.72;;;25.70;44.45
10712;BME280;5407;51.234;6.804;2022-09-09T01:38:11;100339.97;;;25.71;44.62
10712;BME280;5407;51.234;6.804;2022-09-09T01:40:38;100330.78;;;25.74;44.52
10712;BME280;5407;51.234;6.804;2022-09-09T01:43:05;100335.56;;;25.73;44.52
10712;BME280;5407;51.234;6.804;2022-09-09T01:45:35;100337.22;;;25.71;44.23
10712;BME280;5407;51.234;6.804;2022-09-09T01:48:02;100339.03;;;25.65;44.15
10712;BME280;5407;51.234;6.804;2022-09-09T01:50:42;100332.13;;;25.60;44.39
10712;BME280;5407;51.234;6.804;2022-09-09T01:53:09;100336.22;;;25.56;44.54
10712;BME280;5407;51.234;6.804;2022-09-09T01:55:37;100334.66;;;25.55;44.82
10712;BME280;5407;51.234;6.804;2022-09-09T01:58:10;100341.88;;;25.52;44.73
10712;BME280;5407;51.234;6.804;2022-09-09T02:00:48;100339.56;;;25.51;44.84
10712;BME280;5407;51.234;6.804;2022-09-09T02:03:20;100340.47;;;25.48;45.16
10712;BME280;5407;51.234;6.804;2022-09-09T02:05:59;100342.91;;;25.46;44.88
10712;BME280;5407;51.234;6.804;2022-09-09T02:08:33;100339.03;;;25.43;45.17
10712;BME280;5407;51.234;6.804;2022-09-09T02:11:07;100338.28;;;25.43;45.00
10712;BME280;5407;51.234;6.804;2022-09-09T02:13:41;100340.06;;;25.37;45.17
10712;BME280;5407;51.234;6.804;2022-09-09T02:16:13;100339.25;;;25.15;45.53
10712;BME280;5407;51.234;6.804;2022-09-09T02:18:46;100336.41;;;25.06;45.75
10712;BME280;5407;51.234;6.804;2022-09-09T02:21:15;100342.09;;;25.24;45.64
10712;BME280;5407;51.234;6.804;2022-09-09T02:23:43;100345.66;;;25.25;45.53
10712;BME280;5407;51.234;6.804;2022-09-09T02:26:13;100337.16;;;25.19;45.86
10712;BME280;5407;51.234;6.804;2022-09-09T02:28:47;100331.22;;;25.08;45.93
10712;BME280;5407;51.234;6.804;2022-09-09T02:31:17;100338.94;;;25.01;45.82
10712;BME280;5407;51.234;6.804;2022-09-09T02:33:46;100340.09;;;24.91;46.04
10712;BME280;5407;51.234;6.804;2022-09-09T02:36:14;100343.56;;;24.82;46.32
10712;BME280;5407;51.234;6.804;2022-09-09T02:38:45;100339.03;;;24.76;46.59
10712;BME280;5407;51.234;6.804;2022-09-09T02:41:16;100340.81;;;24.82;46.49
10712;BME280;5407;51.234;6.804;2022-09-09T02:43:43;100338.91;;;25.13;45.74
10712;BME280;5407;51.234;6.804;2022-09-09T02:46:18;100328.19;;;25.15;45.58
10712;BME280;5407;51.234;6.804;2022-09-09T02:48:48;100324.22;;;25.16;45.44
10712;BME280;5407;51.234;6.804;2022-09-09T02:51:19;100327.78;;;25.17;45.38
10712;BME280;5407;51.234;6.804;2022-09-09T02:53:50;100326.66;;;25.14;45.41
10712;BME280;5407;51.234;6.804;2022-09-09T02:56:21;100325.44;;;25.15;45.03
10712;BME280;5407;51.234;6.804;2022-09-09T02:58:54;100328.19;;;25.15;45.09
10712;BME280;5407;51.234;6.804;2022-09-09T03:01:23;100320.38;;;25.14;45.24
10712;BME280;5407;51.234;6.804;2022-09-09T03:03:50;100321.38;;;25.20;45.18
10712;BME280;5407;51.234;6.804;2022-09-09T03:06:17;100320.44;;;25.35;44.82
10712;BME280;5407;51.234;6.804;2022-09-09T03:08:48;100321.19;;;25.35;44.59
10712;BME280;5407;51.234;6.804;2022-09-09T03:11:21;100316.56;;;25.33;44.71
10712;BME280;5407;51.234;6.804;2022-09-09T03:13:47;100316.69;;;25.29;44.51
10712;BME280;5407;51.234;6.804;2022-09-09T03:16:14;100322.22;;;25.29;44.43
10712;BME280;5407;51.234;6.804;2022-09-09T03:18:46;100317.56;;;25.26;44.48
10712;BME280;5407;51.234;6.804;2022-09-09T03:21:13;100316.94;;;25.22;44.50
10712;BME280;5407;51.234;6.804;2022-09-09T03:23:41;100316.81;;;25.26;44.56
10712;BME280;5407;51.234;6.804;2022-09-09T03:26:07;100314.38;;;25.28;44.58
10712;BME280;5407;51.234;6.804;2022-09-09T03:28:40;100306.56;;;25.14;44.80
10712;BME280;5407;51.234;6.804;2022-09-09T03:31:07;100313.75;;;25.24;44.63
10712;BME280;5407;51.234;6.804;2022-09-09T03:33:38;100312.72;;;25.30;44.53
10712;BME280;5407;51.234;6.804;2022-09-09T03:36:08;100318.88;;;25.34;44.17
10712;BME280;5407;51.234;6.804;2022-09-09T03:38:36;100310.03;;;25.39;44.14
10712;BME280;5407;51.234;6.804;2022-09-09T03:41:03;100316.19;;;25.43;44.14
10712;BME280;5407;51.234;6.804;2022-09-09T03:43:33;100310.59;;;25.34;44.26
10712;BME280;5407;51.234;6.804;2022-09-09T03:46:00;100314.00;;;25.17;44.74
10712;BME280;5407;51.234;6.804;2022-09-09T03:48:28;100312.78;;;25.05;45.03
10712;BME280;5407;51.234;6.804;2022-09-09T03:50:55;100319.44;;;24.95;44.82
10712;BME280;5407;51.234;6.804;2022-09-09T03:53:25;100311.09;;;24.86;45.40
10712;BME280;5407;51.234;6.804;2022-09-09T03:55:52;100308.56;;;24.79;45.33
10712;BME280;5407;51.234;6.804;2022-09-09T03:58:22;100306.69;;;24.76;45.51
10712;BME280;5407;51.234;6.804;2022-09-09T04:00:54;100308.78;;;24.72;45.75
10712;BME280;5407;51.234;6.804;2022-09-09T04:03:21;100308.47;;;24.70;45.44
10712;BME280;5407;51.234;6.804;2022-09-09T04:05:50;100310.66;;;24.75;45.56
10712;BME280;5407;51.234;6.804;2022-09-09T04:08:17;100312.00;;;24.83;45.67
10712;BME280;5407;51.234;6.804;2022-09-09T04:10:47;100314.19;;;24.88;45.47
10712;BME280;5407;51.234;6.804;2022-09-09T04:13:15;100312.50;;;24.91;45.16
10712;BME280;5407;51.234;6.804;2022-09-09T04:15:43;100302.88;;;24.95;45.42
10712;BME280;5407;51.234;6.804;2022-09-09T04:18:11;100315.78;;;24.98;45.04
10712;BME280;5407;51.234;6.804;2022-09-09T04:20:38;100315.34;;;25.00;45.12
10712;BME280;5407;51.234;6.804;2022-09-09T04:23:05;100310.59;;;25.00;45.30
10712;BME280;5407;51.234;6.804;2022-09-09T04:25:32;100321.31;;;24.98;45.13
10712;BME280;5407;51.234;6.804;2022-09-09T04:28:01;100318.81;;;24.91;45.27
10712;BME280;5407;51.234;6.804;2022-09-09T04:30:28;100314.03;;;24.92;45.60
10712;BME280;5407;51.234;6.804;2022-09-09T04:32:56;100310.63;;;24.88;45.23
10712;BME280;5407;51.234;6.804;2022-09-09T04:35:22;100311.63;;;24.81;45.59
10712;BME280;5407;51.234;6.804;2022-09-09T04:37:49;100316.81;;;24.79;45.89
10712;BME280;5407;51.234;6.804;2022-09-09T04:40:16;100305.78;;;24.79;45.71
10712;BME280;5407;51.234;6.804;2022-09-09T04:42:43;100313.00;;;24.77;45.68
10712;BME280;5407;51.234;6.804;2022-09-09T04:45:13;100316.50;;;24.77;45.71
10712;BME280;5407;51.234;6.804;2022-09-09T04:47:40;100313.00;;;24.77;45.76
10712;BME280;5407;51.234;6.804;2022-09-09T04:50:08;100312.19;;;24.76;46.08
10712;BME280;5407;51.234;6.804;2022-09-09T04:52:35;100311.56;;;24.72;45.83
10712;BME280;5407;51.234;6.804;2022-09-09T04:55:03;100315.53;;;24.71;45.75
10712;BME280;5407;51.234;6.804;2022-09-09T04:57:30;100314.00;;;24.70;46.10
10712;BME280;5407;51.234;6.804;2022-09-09T04:59:57;100313.56;;;24.72;45.96
10712;BME280;5407;51.234;6.804;2022-09-09T05:02:25;100310.00;;;24.71;45.92
10712;BME280;5407;51.234;6.804;2022-09-09T05:04:51;100317.06;;;24.72;46.34
10712;BME280;5407;51.234;6.804;2022-09-09T05:07:18;100318.94;;;24.75;45.90
10712;BME280;5407;51.234;6.804;2022-09-09T05:09:45;100317.94;;;24.82;46.11
10712;BME280;5407;51.234;6.804;2022-09-09T05:12:13;100312.84;;;24.80;46.04
10712;BME280;5407;51.234;6.804;2022-09-09T05:14:46;100322.34;;;24.79;46.01
10712;BME280;5407;51.234;6.804;2022-09-09T05:17:13;100321.59;;;24.79;46.06
10712;BME280;5407;51.234;6.804;2022-09-09T05:19:43;100312.53;;;24.78;46.19
10712;BME280;5407;51.234;6.804;2022-09-09T05:22:09;100310.66;;;24.75;46.09
10712;BME280;5407;51.234;6.804;2022-09-09T05:24:42;100306.03;;;24.72;46.04
10712;BME280;5407;51.234;6.804;2022-09-09T05:27:09;100312.78;;;24.71;46.24
10712;BME280;5407;51.234;6.804;2022-09-09T05:29:38;100314.00;;;24.70;46.00
10712;BME280;5407;51.234;6.804;2022-09-09T05:32:07;100303.75;;;24.71;45.99
10712;BME280;5407;51.234;6.804;2022-09-09T05:34:35;100303.84;;;24.67;46.17
10712;BME280;5407;51.234;6.804;2022-09-09T05:37:04;100307.16;;;24.62;46.35
10712;BME280;5407;51.234;6.804;2022-09-09T05:39:32;100311.56;;;24.72;46.06
10712;BME280;5407;51.234;6.804;2022-09-09T05:41:59;100308.88;;;24.81;45.94
10712;BME280;5407;51.234;6.804;2022-09-09T05:44:26;100308.78;;;24.85;45.96
10712;BME280;5407;51.234;6.804;2022-09-09T05:46:54;100307.34;;;24.80;45.91
10712;BME280;5407;51.234;6.804;2022-09-09T05:49:21;100313.00;;;24.77;46.06
10712;BME280;5407;51.234;6.804;2022-09-09T05:51:48;100312.53;;;24.78;46.16
10712;BME280;5407;51.234;6.804;2022-09-09T05:54:18;100315.97;;;24.82;46.12
10712;BME280;5407;51.234;6.804;2022-09-09T05:56:48;100315.06;;;24.85;45.95
10712;BME280;5407;51.234;6.804;2022-09-09T05:59:18;100319.06;;;24.84;45.94
10712;BME280;5407;51.234;6.804;2022-09-09T06:01:45;100318.66;;;24.95;45.59
10712;BME280;5407;51.234;6.804;2022-09-09T06:04:27;100325.88;;;24.92;45.88
10712;BME280;5407;51.234;6.804;2022-09-09T06:06:54;100321.88;;;24.93;45.63
10712;BME280;5407;51.234;6.804;2022-09-09T06:09:23;100317.66;;;25.01;45.70
10712;BME280;5407;51.234;6.804;2022-09-09T06:11:50;100319.28;;;25.11;45.33
10712;BME280;5407;51.234;6.804;2022-09-09T06:14:20;100322.59;;;25.19;45.20
10712;BME280;5407;51.234;6.804;2022-09-09T06:16:48;100316.94;;;25.22;45.21
10712;BME280;5407;51.234;6.804;2022-09-09T06:19:19;100317.78;;;25.32;45.09
10712;BME280;5407;51.234;6.804;2022-09-09T06:21:46;100321.06;;;25.39;44.88
10712;BME280;5407;51.234;6.804;2022-09-09T06:24:15;100317.72;;;25.44;44.44
10712;BME280;5407;51.234;6.804;2022-09-09T06:26:46;100324.63;;;25.48;44.53
10712;BME280;5407;51.234;6.804;2022-09-09T06:29:18;100321.44;;;25.50;44.23
10712;BME280;5407;51.234;6.804;2022-09-09T06:31:45;100322.34;;;25.47;44.63
10712;BME280;5407;51.234;6.804;2022-09-09T06:34:19;100324.53;;;25.52;44.34
10712;BME280;5407;51.234;6.804;2022-09-09T06:36:50;100333.72;;;25.49;44.44
10712;BME280;5407;51.234;6.804;2022-09-09T06:39:17;100325.69;;;25.42;44.22
10712;BME280;5407;51.234;6.804;2022-09-09T06:41:46;100322.34;;;25.26;44.54
10712;BME280;5407;51.234;6.804;2022-09-09T06:44:32;100322.69;;;25.15;44.75
10712;BME280;5407;51.234;6.804;2022-09-09T06:46:59;100332.09;;;25.18;44.56
10712;BME280;5407;51.234;6.804;2022-09-09T06:49:26;100328.38;;;25.33;44.34
10712;BME280;5407;51.234;6.804;2022-09-09T06:51:53;100326.19;;;25.28;44.30
10712;BME280;5407;51.234;6.804;2022-09-09T06:54:20;100335.31;;;25.37;44.34
10712;BME280;5407;51.234;6.804;2022-09-09T06:56:49;100330.91;;;25.40;44.09
10712;BME280;5407;51.234;6.804;2022-09-09T06:59:21;100327.94;;;25.34;44.04
10712;BME280;5407;51.234;6.804;2022-09-09T07:01:48;100331.78;;;25.37;43.67
10712;BME280;5407;51.234;6.804;2022-09-09T07:04:17;100328.56;;;25.38;43.40
10712;BME280;5407;51.234;6.804;2022-09-09T07:06:44;100333.50;;;25.43;43.33
10712;BME280;5407;51.234;6.804;2022-09-09T07:09:16;100332.59;;;25.46;43.49
10712;BME280;5407;51.234;6.804;2022-09-09T07:11:46;100343.09;;;25.51;43.11
10712;BME280;5407;51.234;6.804;2022-09-09T07:14:16;100333.91;;;25.54;42.99
10712;BME280;5407;51.234;6.804;2022-09-09T07:16:46;100335.91;;;25.54;42.58
10712;BME280;5407;51.234;6.804;2022-09-09T07:19:14;100341.75;;;25.56;42.66
10712;BME280;5407;51.234;6.804;2022-09-09T07:21:42;100343.44;;;25.53;42.40
10712;BME280;5407;51.234;6.804;2022-09-09T07:24:13;100347.16;;;25.59;42.63
10712;BME280;5407;51.234;6.804;2022-09-09T07:26:42;100345.19;;;25.47;42.75
10712;BME280;5407;51.234;6.804;2022-09-09T07:29:10;100344.44;;;25.47;42.46
10712;BME280;5407;51.234;6.804;2022-09-09T07:31:41;100352.53;;;25.41;42.91
10712;BME280;5407;51.234;6.804;2022-09-09T07:34:12;100350.22;;;25.40;43.01
10712;BME280;5407;51.234;6.804;2022-09-09T07:36:40;100354.16;;;25.30;43.05
10712;BME280;5407;51.234;6.804;2022-09-09T07:39:11;100353.56;;;25.35;43.18
10712;BME280;5407;51.234;6.804;2022-09-09T07:41:41;100366.47;;;25.38;43.18
10712;BME280;5407;51.234;6.804;2022-09-09T07:44:08;100366.19;;;25.24;43.40
10712;BME280;5407;51.234;6.804;2022-09-09T07:46:37;100360.41;;;25.31;43.50
10712;BME280;5407;51.234;6.804;2022-09-09T07:49:08;100358.84;;;25.42;42.68
10712;BME280;5407;51.234;6.804;2022-09-09T07:51:37;100371.41;;;25.43;42.32
10712;BME280;5407;51.234;6.804;2022-09-09T07:54:05;100367.50;;;25.53;42.75
10712;BME280;5407;51.234;6.804;2022-09-09T07:56:33;100363.09;;;25.55;42.64
10712;BME280;5407;51.234;6.804;2022-09-09T07:59:01;100372.69;;;25.51;41.74
10712;BME280;5407;51.234;6.804;2022-09-09T08:01:30;100376.94;;;25.43;42.05
10712;BME280;5407;51.234;6.804;2022-09-09T08:03:58;100378.41;;;25.35;41.46
10712;BME280;5407;51.234;6.804;2022-09-09T08:06:29;100359.00;;;25.26;40.77
10712;BME280;5407;51.234;6.804;2022-09-09T08:08:58;100361.31;;;25.28;41.22
10712;BME280;5407;51.234;6.804;2022-09-09T08:11:26;100364.97;;;25.25;41.21
10712;BME280;5407;51.234;6.804;2022-09-09T08:13:54;100365.31;;;25.14;41.31
10712;BME280;5407;51.234;6.804;2022-09-09T08:16:22;100374.16;;;25.09;40.75
10712;BME280;5407;51.234;6.804;2022-09-09T08:18:49;100370.50;;;25.12;41.02
10712;BME280;5407;51.234;6.804;2022-09-09T08:21:18;100372.63;;;25.08;41.07
10712;BME280;5407;51.234;6.804;2022-09-09T08:23:47;100371.16;;;25.16;41.06
10712;BME280;5407;51.234;6.804;2022-09-09T08:26:15;100375.56;;;25.26;40.84
10712;BME280;5407;51.234;6.804;2022-09-09T08:28:43;100368.75;;;25.18;40.68
10712;BME280;5407;51.234;6.804;2022-09-09T08:31:11;100368.16;;;25.23;41.35
10712;BME280;5407;51.234;6.804;2022-09-09T08:33:39;100371.25;;;25.25;41.18
10712;BME280;5407;51.234;6.804;2022-09-09T08:36:08;100367.16;;;25.30;41.16
10712;BME280;5407;51.234;6.804;2022-09-09T08:38:36;100359.66;;;25.30;40.75
10712;BME280;5407;51.234;6.804;2022-09-09T08:41:15;100368.38;;;25.16;40.80
10712;BME280;5407;51.234;6.804;2022-09-09T08:43:47;100368.75;;;25.18;40.58
10712;BME280;5407;51.234;6.804;2022-09-09T08:46:17;100368.38;;;25.16;40.70
10712;BME280;5407;51.234;6.804;2022-09-09T08:48:48;100370.50;;;25.12;40.23
10712;BME280;5407;51.234;6.804;2022-09-09T08:51:20;100371.16;;;25.16;40.37
10712;BME280;5407;51.234;6.804;2022-09-09T08:53:48;100367.53;;;25.19;40.41
10712;BME280;5407;51.234;6.804;2022-09-09T08:56:18;100362.16;;;25.37;40.47
10712;BME280;5407;51.234;6.804;2022-09-09T08:58:48;100364.03;;;25.40;40.65
10712;BME280;5407;51.234;6.804;2022-09-09T09:01:24;100368.00;;;25.39;40.37
10712;BME280;5407;51.234;6.804;2022-09-09T09:03:57;100367.38;;;25.35;40.59
10712;BME280;5407;51.234;6.804;2022-09-09T09:06:32;100369.50;;;25.31;40.41
10712;BME280;5407;51.234;6.804;2022-09-09T09:09:05;100375.50;;;25.38;40.52
10712;BME280;5407;51.234;6.804;2022-09-09T09:11:36;100378.22;;;25.51;40.30
10712;BME280;5407;51.234;6.804;2022-09-09T09:14:07;100375.53;;;25.60;40.00
10712;BME280;5407;51.234;6.804;2022-09-09T09:16:38;100380.78;;;25.67;39.77
10712;BME280;5407;51.234;6.804;2022-09-09T09:19:08;100382.97;;;25.72;39.59
10712;BME280;5407;51.234;6.804;2022-09-09T09:21:39;100380.88;;;25.76;39.95
10712;BME280;5407;51.234;6.804;2022-09-09T09:24:13;100382.75;;;25.79;39.46
10712;BME280;5407;51.234;6.804;2022-09-09T09:26:45;100380.28;;;25.81;39.41
10712;BME280;5407;51.234;6.804;2022-09-09T09:29:12;100383.41;;;25.83;39.39
10712;BME280;5407;51.234;6.804;2022-09-09T09:31:42;100388.94;;;25.83;39.30
10712;BME280;5407;51.234;6.804;2022-09-09T09:34:09;100376.66;;;25.84;39.37
10712;BME280;5407;51.234;6.804;2022-09-09T09:36:39;100377.88;;;25.83;39.28
10712;BME280;5407;51.234;6.804;2022-09-09T09:39:07;100392.34;;;25.87;39.06
10712;BME280;5407;51.234;6.804;2022-09-09T09:41:40;100387.72;;;25.84;39.12
10712;BME280;5407;51.234;6.804;2022-09-09T09:44:21;100387.56;;;25.87;39.18
10712;BME280;5407;51.234;6.804;2022-09-09T09:46:48;100394.19;;;25.90;39.01
10712;BME280;5407;51.234;6.804;2022-09-09T09:49:15;100390.66;;;25.89;39.13
10712;BME280;5407;51.234;6.804;2022-09-09T09:51:43;100387.88;;;25.89;39.10
10712;BME280;5407;51.234;6.804;2022-09-09T09:54:14;100388.66;;;25.90;38.75
10712;BME280;5407;51.234;6.804;2022-09-09T09:56:45;100376.06;;;25.89;38.55
10712;BME280;5407;51.234;6.804;2022-09-09T09:59:22;100387.63;;;25.75;38.65
10712;BME280;5407;51.234;6.804;2022-09-09T10:01:50;100382.09;;;25.75;38.62
10712;BME280;5407;51.234;6.804;2022-09-09T10:04:19;100383.63;;;25.76;38.95
10712;BME280;5407;51.234;6.804;2022-09-09T10:06:50;100379.84;;;25.82;38.77
10712;BME280;5407;51.234;6.804;2022-09-09T10:09:23;100377.09;;;25.82;38.77
10712;BME280;5407;51.234;6.804;2022-09-09T10:11:54;100380.66;;;25.83;38.67
10712;BME280;5407;51.234;6.804;2022-09-09T10:14:24;100366.81;;;25.83;38.62
10712;BME280;5407;51.234;6.804;2022-09-09T10:17:01;100363.59;;;25.84;38.65
10712;BME280;5407;51.234;6.804;2022-09-09T10:19:32;100372.34;;;25.83;38.77
10712;BME280;5407;51.234;6.804;2022-09-09T10:22:04;100365.25;;;25.82;38.65
10712;BME280;5407;51.234;6.804;2022-09-09T10:24:39;100370.00;;;25.81;38.96
10712;BME280;5407;51.234;6.804;2022-09-09T10:27:12;100371.03;;;25.75;39.13
10712;BME280;5407;51.234;6.804;2022-09-09T10:29:47;100364.84;;;25.71;39.10
10712;BME280;5407;51.234;6.804;2022-09-09T10:35:12;100368.19;;;25.66;39.26
10712;BME280;5407;51.234;6.804;2022-09-09T10:37:42;100357.28;;;25.62;39.36
10712;BME280;5407;51.234;6.804;2022-09-09T10:40:19;100369.09;;;25.63;39.37
10712;BME280;5407;51.234;6.804;2022-09-09T10:42:49;100364.47;;;25.60;39.24
10712;BME280;5407;51.234;6.804;2022-09-09T10:45:18;100355.13;;;25.57;39.55
10712;BME280;5407;51.234;6.804;2022-09-09T10:47:55;100357.41;;;25.59;39.42
10712;BME280;5407;51.234;6.804;2022-09-09T10:50:31;100355.88;;;25.58;39.56
10712;BME280;5407;51.234;6.804;2022-09-09T10:53:00;100360.63;;;25.57;39.61
10712;BME280;5407;51.234;6.804;2022-09-09T10:55:32;100361.41;;;25.58;39.48
10712;BME280;5407;51.234;6.804;2022-09-09T10:58:02;100366.91;;;25.58;39.26
10712;BME280;5407;51.234;6.804;2022-09-09T11:00:36;100349.50;;;25.70;39.37
10712;BME280;5407;51.234;6.804;2022-09-09T11:03:04;100351.19;;;25.67;39.44
10712;BME280;5407;51.234;6.804;2022-09-09T11:05:35;100350.88;;;25.65;39.53
10712;BME280;5407;51.234;6.804;2022-09-09T11:08:04;100354.84;;;25.64;39.39
10712;BME280;5407;51.234;6.804;2022-09-09T11:10:34;100348.53;;;25.64;39.46
10712;BME280;5407;51.234;6.804;2022-09-09T11:13:05;100346.63;;;25.52;38.47
10712;BME280;5407;51.234;6.804;2022-09-09T11:15:38;100353.38;;;25.51;39.01
10712;BME280;5407;51.234;6.804;2022-09-09T11:18:08;100343.91;;;25.61;38.85
10712;BME280;5407;51.234;6.804;2022-09-09T11:20:37;100357.16;;;25.66;38.96
10712;BME280;5407;51.234;6.804;2022-09-09T11:23:04;100346.72;;;25.70;39.19
10712;BME280;5407;51.234;6.804;2022-09-09T11:25:37;100349.81;;;25.72;39.29
10712;BME280;5407;51.234;6.804;2022-09-09T11:28:16;100368.28;;;25.75;39.41
10712;BME280;5407;51.234;6.804;2022-09-09T11:30:52;100356.31;;;25.78;40.02
10712;BME280;5407;51.234;6.804;2022-09-09T11:33:28;100363.41;;;25.79;40.35
10712;BME280;5407;51.234;6.804;2022-09-09T11:36:03;100362.16;;;25.80;40.20
10712;BME280;5407;51.234;6.804;2022-09-09T11:38:34;100367.59;;;25.83;40.42
10712;BME280;5407;51.234;6.804;2022-09-09T11:41:03;100363.94;;;25.74;40.76
10712;BME280;5407;51.234;6.804;2022-09-09T11:43:32;100362.09;;;25.71;40.94
10712;BME280;5407;51.234;6.804;2022-09-09T11:46:05;100357.94;;;25.66;40.83
10712;BME280;5407;51.234;6.804;2022-09-09T11:48:34;100356.72;;;25.67;40.45
10712;BME280;5407;51.234;6.804;2022-09-09T11:51:02;100350.72;;;25.69;40.40
10712;BME280;5407;51.234;6.804;2022-09-09T11:53:30;100352.56;;;25.72;40.55
10712;BME280;5407;51.234;6.804;2022-09-09T11:56:01;100352.13;;;25.73;40.56
10712;BME280;5407;51.234;6.804;2022-09-09T11:58:30;100353.56;;;25.78;40.74
10712;BME280;5407;51.234;6.804;2022-09-09T12:00:59;100355.53;;;25.77;40.38
10712;BME280;5407;51.234;6.804;2022-09-09T12:03:38;100352.13;;;25.73;40.32
10712;BME280;5407;51.234;6.804;2022-09-09T12:06:15;100353.16;;;25.67;40.40
10712;BME280;5407;51.234;6.804;2022-09-09T12:08:44;100358.06;;;25.63;40.17
10712;BME280;5407;51.234;6.804;2022-09-09T12:11:11;100361.72;;;25.60;40.30
10712;BME280;5407;51.234;6.804;2022-09-09T12:13:52;100353.44;;;25.60;40.55
10712;BME280;5407;51.234;6.804;2022-09-09T12:16:27;100354.53;;;25.62;40.76
10712;BME280;5407;51.234;6.804;2022-09-09T12:19:03;100366.34;;;25.63;40.63
10712;BME280;5407;51.234;6.804;2022-09-09T12:21:33;100362.34;;;25.64;40.77
10712;BME280;5407;51.234;6.804;2022-09-09T12:24:04;100350.72;;;25.69;40.78
10712;BME280;5407;51.234;6.804;2022-09-09T12:26:34;100352.13;;;25.73;40.55
10712;BME280;5407;51.234;6.804;2022-09-09T12:29:06;100357.09;;;25.78;40.57
10712;BME280;5407;51.234;6.804;2022-09-09T12:31:40;100343.94;;;25.82;40.57
10712;BME280;5407;51.234;6.804;2022-09-09T12:34:13;100351.44;;;25.82;40.51
10712;BME280;5407;51.234;6.804;2022-09-09T12:36:41;100340.06;;;25.80;40.48
10712;BME280;5407;51.234;6.804;2022-09-09T12:39:14;100344.06;;;25.79;40.24
10712;BME280;5407;51.234;6.804;2022-09-09T12:41:50;100351.13;;;25.80;40.22
10712;BME280;5407;51.234;6.804;2022-09-09T12:44:18;100340.06;;;25.80;39.78
10712;BME280;5407;51.234;6.804;2022-09-09T12:46:45;100349.56;;;25.79;39.52
10712;BME280;5407;51.234;6.804;2022-09-09T12:49:24;100340.97;;;25.77;39.82
10712;BME280;5407;51.234;6.804;2022-09-09T12:51:52;100345.28;;;25.78;39.78
10712;BME280;5407;51.234;6.804;2022-09-09T12:54:19;100335.44;;;25.77;39.57
10712;BME280;5407;51.234;6.804;2022-09-09T12:56:46;100334.97;;;25.78;39.86
10712;BME280;5407;51.234;6.804;2022-09-09T12:59:18;100336.19;;;25.77;39.73
10712;BME280;5407;51.234;6.804;2022-09-09T13:01:54;100344.97;;;25.76;39.76
10712;BME280;5407;51.234;6.804;2022-09-09T13:04:22;100338.66;;;25.75;39.69
10712;BME280;5407;51.234;6.804;2022-09-09T13:06:49;100335.56;;;25.73;39.75
10712;BME280;5407;51.234;6.804;2022-09-09T13:09:17;100338.75;;;25.72;40.05
10712;BME280;5407;51.234;6.804;2022-09-09T13:11:45;100333.25;;;25.72;40.42
10712;BME280;5407;51.234;6.804;2022-09-09T13:14:13;100334.78;;;25.73;40.52
10712;BME280;5407;51.234;6.804;2022-09-09T13:16:54;100333.25;;;25.72;40.96
10712;BME280;5407;51.234;6.804;2022-09-09T13:19:23;100335.69;;;25.70;41.36